Time;durP1;ratioP1;P1;durP2;ratioP2;P2;SDS_P1;SDS_P2;PMS_P1;PMS_P2;Temp;Humidity;BMP_temperature;BMP_pressure;BME280_temperature;BME280_humidity;BME280_pressure;Samples;Min_cycle;Max_cycle;Signal;HPM_P1;HPM_P2
2022/08/14 00:00:05;;;;;;;;;;;;;;;;;;4880659;29;19940;-70
2022/08/14 00:02:37;;;;;;;;;;;;;;;;;;4886830;29;19983;-71
2022/08/14 00:05:04;;;;;;;;;;;;;;;;;;4870751;29;19939;-70
2022/08/14 00:07:34;;;;;;;;;;;;;;;;;;4869663;29;20336;-71
2022/08/14 00:10:01;;;;;;;;;;;;;;;;;;4871309;29;19955;-70
2022/08/14 00:12:48;;;;;;;;;;;;;;;;;;4870001;29;20296;-70
2022/08/14 00:15:22;;;;;;;;;;;;;;;;;;4870159;29;20050;-70
2022/08/14 00:17:49;;;;;;;;;;;;;;;;;;4868884;29;19931;-71
2022/08/14 00:20:20;;;;;;;;;;;;;;;;;;4869797;29;19935;-71
2022/08/14 00:22:49;;;;;;;;;;;;;;;;;;4878914;29;19938;-70
2022/08/14 00:25:23;;;;;;;;;;;;;;;;;;4877125;29;19984;-70
2022/08/14 00:27:50;;;;;;;;;;;;;;;;;;4878091;29;20434;-70
2022/08/14 00:30:20;;;;;;;;;;;;;;;;;;4872161;29;19962;-70
2022/08/14 00:32:47;;;;;;;;;;;;;;;;;;4871338;29;19943;-70
2022/08/14 00:35:18;;;;;;;;;;;;;;;;;;4871738;29;19932;-70
2022/08/14 00:37:45;;;;;;;;;;;;;;;;;;4871005;29;19928;-69
2022/08/14 00:40:13;;;;;;;;;;;;;;;;;;4869293;29;20218;-70
2022/08/14 00:42:45;;;;;;;;;;;;;;;;;;4876410;29;19939;-70
2022/08/14 00:45:21;;;;;;;;;;;;;;;;;;4871312;29;19938;-70
2022/08/14 00:47:48;;;;;;;;;;;;;;;;;;4885164;29;19928;-70
2022/08/14 00:50:16;;;;;;;;;;;;;;;;;;4871979;29;20022;-70
2022/08/14 00:52:44;;;;;;;;;;;;;;;;;;4869354;29;20014;-70
2022/08/14 00:55:13;;;;;;;;;;;;;;;;;;4885267;29;19935;-70
2022/08/14 00:57:40;;;;;;;;;;;;;;;;;;4884494;29;20416;-70
2022/08/14 01:00:09;;;;;;;;;;;;;;;;;;4871454;29;20299;-70
2022/08/14 01:02:56;;;;;;;;;;;;;;;;;;4871189;29;20378;-70
2022/08/14 01:05:24;;;;;;;;;;;;;;;;;;4870794;29;20225;-70
2022/08/14 01:07:58;;;;;;;;;;;;;;;;;;4870444;29;20407;-70
2022/08/14 01:10:49;;;;;;;;;;;;;;;;;;4869915;29;19995;-70
2022/08/14 01:13:15;;;;;;;;;;;;;;;;;;4871221;29;20054;-70
2022/08/14 01:15:44;;;;;;;;;;;;;;;;;;4884716;29;20357;-70
2022/08/14 01:21:11;;;;;;;;;;;;;;;;;;4872054;29;20460;-70
2022/08/14 01:23:39;;;;;;;;;;;;;;;;;;4885084;23;20022;-73
2022/08/14 01:26:08;;;;;;;;;;;;;;;;;;4876862;29;19940;-73
2022/08/14 01:28:37;;;;;;;;;;;;;;;;;;4880839;29;19936;-73
2022/08/14 01:31:22;;;;;;;;;;;;;;;;;;4886722;29;20304;-73
2022/08/14 01:33:50;;;;;;;;;;;;;;;;;;4887593;29;19928;-73
2022/08/14 01:36:37;;;;;;;;;;;;;;;;;;4885392;29;20479;-73
2022/08/14 01:39:06;;;;;;;;;;;;;;;;;;4886710;29;20328;-73
2022/08/14 01:41:38;;;;;;;;;;;;;;;;;;4884915;29;19934;-73
2022/08/14 01:44:06;;;;;;;;;;;;;;;;;;4890175;29;20054;-73
2022/08/14 01:46:33;;;;;;;;;;;;;;;;;;4885010;29;19931;-73
2022/08/14 01:49:03;;;;;;;;;;;;;;;;;;4886865;29;19955;-73
2022/08/14 01:51:30;;;;;;;;;;;;;;;;;;4887762;29;20380;-73
2022/08/14 01:53:57;;;;;;;;;;;;;;;;;;4875003;29;20030;-73
2022/08/14 01:56:34;;;;;;;;;;;;;;;;;;4873680;29;19937;-73
2022/08/14 01:59:03;;;;;;;;;;;;;;;;;;4889245;29;19938;-73
2022/08/14 02:01:30;;;;;;;;;;;;;;;;;;4889590;29;19928;-73
2022/08/14 02:03:58;;;;;;;;;;;;;;;;;;4891079;29;19942;-73
2022/08/14 02:06:25;;;;;;;;;;;;;;;;;;4893292;29;20399;-73
2022/08/14 02:09:01;;;;;;;;;;;;;;;;;;4893872;29;19939;-73
2022/08/14 02:11:28;;;;;;;;;;;;;;;;;;4891805;29;20022;-73
2022/08/14 02:13:57;;;;;;;;;;;;;;;;;;4893393;29;20395;-73
2022/08/14 02:16:24;;;;;;;;;;;;;;;;;;4891187;29;20355;-73
2022/08/14 02:18:52;;;;;;;;;;;;;;;;;;4893345;29;19931;-73
2022/08/14 02:21:19;;;;;;;;;;;;;;;;;;4893105;29;20451;-73
2022/08/14 02:23:49;;;;;;;;;;;;;;;;;;4893296;29;19927;-73
2022/08/14 02:26:19;;;;;;;;;;;;;;;;;;4891221;29;20351;-73
2022/08/14 02:28:58;;;;;;;;;;;;;;;;;;4893216;29;20394;-73
2022/08/14 02:31:28;;;;;;;;;;;;;;;;;;4893167;29;19935;-72
2022/08/14 02:34:09;;;;;;;;;;;;;;;;;;4892967;29;19931;-73
2022/08/14 02:36:46;;;;;;;;;;;;;;;;;;4891256;29;19938;-73
2022/08/14 02:39:31;;;;;;;;;;;;;;;;;;4889829;29;19932;-73
2022/08/14 02:41:59;;;;;;;;;;;;;;;;;;4891102;29;20448;-73
2022/08/14 02:44:26;;;;;;;;;;;;;;;;;;4892702;29;19928;-73
2022/08/14 02:46:56;;;;;;;;;;;;;;;;;;4891860;29;19931;-73
2022/08/14 02:49:27;;;;;;;;;;;;;;;;;;4889945;29;20674;-73
2022/08/14 02:52:00;;;;;;;;;;;;;;;;;;4891029;29;20392;-73
2022/08/14 02:54:27;;;;;;;;;;;;;;;;;;4892461;29;19931;-73
2022/08/14 02:56:55;;;;;;;;;;;;;;;;;;4888951;29;19928;-73
2022/08/14 02:59:42;;;;;;;;;;;;;;;;;;4889865;29;20388;-73
2022/08/14 03:02:11;;;;;;;;;;;;;;;;;;4891610;29;20266;-73
2022/08/14 03:04:59;;;;;;;;;;;;;;;;;;4886547;29;19927;-73
2022/08/14 03:07:26;;;;;;;;;;;;;;;;;;4890604;29;20215;-73
2022/08/14 03:09:53;;;;;;;;;;;;;;;;;;4875119;29;19927;-73
2022/08/14 03:12:41;;;;;;;;;;;;;;;;;;4891671;29;19931;-73
2022/08/14 03:15:12;;;;;;;;;;;;;;;;;;4891352;29;19940;-73
2022/08/14 03:17:41;;;;;;;;;;;;;;;;;;4891177;29;19935;-73
2022/08/14 03:20:24;;;;;;;;;;;;;;;;;;4891957;29;20276;-73
2022/08/14 03:22:51;;;;;;;;;;;;;;;;;;4891792;29;20031;-73
2022/08/14 03:25:20;;;;;;;;;;;;;;;;;;4892121;29;19936;-73
2022/08/14 03:27:48;;;;;;;;;;;;;;;;;;4889523;29;19932;-73
2022/08/14 03:30:24;;;;;;;;;;;;;;;;;;4892134;29;19931;-73
2022/08/14 03:33:05;;;;;;;;;;;;;;;;;;4891538;29;19960;-73
2022/08/14 03:35:33;;;;;;;;;;;;;;;;;;4891582;29;19931;-73
2022/08/14 03:38:08;;;;;;;;;;;;;;;;;;4888349;29;20018;-73
2022/08/14 03:40:55;;;;;;;;;;;;;;;;;;4886601;29;20034;-73
2022/08/14 03:43:22;;;;;;;;;;;;;;;;;;4890957;29;19927;-73
2022/08/14 03:45:50;;;;;;;;;;;;;;;;;;4889951;29;19982;-73
2022/08/14 03:48:18;;;;;;;;;;;;;;;;;;4888695;29;19942;-73
2022/08/14 03:50:56;;;;;;;;;;;;;;;;;;4887534;29;19970;-73
2022/08/14 03:53:23;;;;;;;;;;;;;;;;;;4889677;29;20349;-73
2022/08/14 03:55:54;;;;;;;;;;;;;;;;;;4889441;29;19939;-73
2022/08/14 03:58:22;;;;;;;;;;;;;;;;;;4887670;29;19995;-73
2022/08/14 04:00:49;;;;;;;;;;;;;;;;;;4887097;29;20374;-73
2022/08/14 04:03:17;;;;;;;;;;;;;;;;;;4890582;29;19996;-73
2022/08/14 04:05:50;;;;;;;;;;;;;;;;;;4889725;29;19932;-73
2022/08/14 04:08:17;;;;;;;;;;;;;;;;;;4890946;29;19935;-73
2022/08/14 04:10:49;;;;;;;;;;;;;;;;;;4891480;29;20356;-74
2022/08/14 04:13:17;;;;;;;;;;;;;;;;;;4889610;29;19938;-74
2022/08/14 04:15:44;;;;;;;;;;;;;;;;;;4889964;29;20233;-74
2022/08/14 04:18:28;;;;;;;;;;;;;;;;;;4890136;29;20034;-74
2022/08/14 04:20:56;;;;;;;;;;;;;;;;;;4890984;29;20010;-73
2022/08/14 04:23:24;;;;;;;;;;;;;;;;;;4889278;29;19983;-73
2022/08/14 04:25:56;;;;;;;;;;;;;;;;;;4890397;29;19979;-73
2022/08/14 04:28:25;;;;;;;;;;;;;;;;;;4888395;29;19931;-74
2022/08/14 04:31:12;;;;;;;;;;;;;;;;;;4889025;29;19932;-74
2022/08/14 04:33:41;;;;;;;;;;;;;;;;;;4889096;29;20213;-74
2022/08/14 04:36:08;;;;;;;;;;;;;;;;;;4889947;29;19931;-73
2022/08/14 04:44:09;;;;;;;;;;;;;;;;;;4890083;29;20399;-73
2022/08/14 04:46:39;;;;;;;;;;;;;;;;;;4889629;29;20459;-73
2022/08/14 04:49:23;;;;;;;;;;;;;;;;;;4890806;29;19928;-73
2022/08/14 04:51:50;;;;;;;;;;;;;;;;;;4890415;29;19932;-73
2022/08/14 04:54:23;;;;;;;;;;;;;;;;;;4891143;29;19935;-73
2022/08/14 04:56:50;;;;;;;;;;;;;;;;;;4884994;29;19938;-73
2022/08/14 04:59:17;;;;;;;;;;;;;;;;;;4890308;29;19986;-73
2022/08/14 05:01:45;;;;;;;;;;;;;;;;;;4890843;29;19931;-73
2022/08/14 05:04:14;;;;;;;;;;;;;;;;;;4889825;29;19938;-73
2022/08/14 05:06:42;;;;;;;;;;;;;;;;;;4889854;29;19939;-72
2022/08/14 05:09:09;;;;;;;;;;;;;;;;;;4890590;29;19975;-73
2022/08/14 05:11:40;;;;;;;;;;;;;;;;;;4890425;29;19943;-73
2022/08/14 05:14:08;;;;;;;;;;;;;;;;;;4889273;29;19931;-72
2022/08/14 05:16:57;;;;;;;;;;;;;;;;;;4887024;29;19927;-73
2022/08/14 05:19:28;;;;;;;;;;;;;;;;;;4889971;29;19934;-72
2022/08/14 05:21:58;;;;;;;;;;;;;;;;;;4887611;29;20022;-73
2022/08/14 05:24:44;;;;;;;;;;;;;;;;;;4888870;29;19931;-73
2022/08/14 05:27:11;;;;;;;;;;;;;;;;;;4886681;29;19931;-73
2022/08/14 05:29:43;;;;;;;;;;;;;;;;;;4877982;29;20467;-73
2022/08/14 05:32:12;;;;;;;;;;;;;;;;;;4887128;29;19975;-73
2022/08/14 05:34:39;;;;;;;;;;;;;;;;;;4888219;29;20038;-73
2022/08/14 05:37:06;;;;;;;;;;;;;;;;;;4889343;29;20012;-73
2022/08/14 05:39:33;;;;;;;;;;;;;;;;;;4890189;29;20148;-73
2022/08/14 05:42:01;;;;;;;;;;;;;;;;;;4890132;29;19928;-73
2022/08/14 05:44:47;;;;;;;;;;;;;;;;;;4889836;29;20411;-73
2022/08/14 05:47:14;;;;;;;;;;;;;;;;;;4889170;29;19932;-73
2022/08/14 05:49:42;;;;;;;;;;;;;;;;;;4888311;29;20371;-73
2022/08/14 05:52:09;;;;;;;;;;;;;;;;;;4889828;29;19931;-74
2022/08/14 05:54:36;;;;;;;;;;;;;;;;;;4889068;29;20014;-73
2022/08/14 05:57:04;;;;;;;;;;;;;;;;;;4888347;29;20466;-73
2022/08/14 05:59:31;;;;;;;;;;;;;;;;;;4889229;29;19938;-74
2022/08/14 06:02:05;;;;;;;;;;;;;;;;;;4889598;29;19967;-72
2022/08/14 06:04:32;;;;;;;;;;;;;;;;;;4889235;29;20471;-72
2022/08/14 06:07:00;;;;;;;;;;;;;;;;;;4889008;29;19931;-72
2022/08/14 06:09:27;;;;;;;;;;;;;;;;;;4889137;29;19931;-73
2022/08/14 06:11:54;;;;;;;;;;;;;;;;;;4919386;29;20281;-71
2022/08/14 06:14:22;;;;;;;;;;;;;;;;;;4889104;29;19962;-72
2022/08/14 06:16:50;;;;;;;;;;;;;;;;;;4888491;29;19936;-73
2022/08/14 06:19:19;;;;;;;;;;;;;;;;;;4888995;29;19928;-73
2022/08/14 06:21:46;;;;;;;;;;;;;;;;;;4889605;29;19938;-73
2022/08/14 06:24:13;;;;;;;;;;;;;;;;;;4889329;29;20300;-73
2022/08/14 06:26:44;;;;;;;;;;;;;;;;;;4887253;29;20080;-72
2022/08/14 06:29:20;;;;;;;;;;;;;;;;;;4887849;29;19936;-72
2022/08/14 06:31:47;;;;;;;;;;;;;;;;;;4888983;29;20327;-72
2022/08/14 06:34:21;;;;;;;;;;;;;;;;;;4889068;29;20030;-72
2022/08/14 06:37:08;;;;;;;;;;;;;;;;;;4888020;29;19939;-73
2022/08/14 06:39:35;;;;;;;;;;;;;;;;;;4889205;29;20422;-72
2022/08/14 06:42:04;;;;;;;;;;;;;;;;;;4888838;29;19934;-72
2022/08/14 06:44:32;;;;;;;;;;;;;;;;;;4889337;29;20281;-72
2022/08/14 06:46:59;;;;;;;;;;;;;;;;;;4888698;29;20035;-72
2022/08/14 06:49:27;;;;;;;;;;;;;;;;;;4888970;29;19931;-72
2022/08/14 06:51:54;;;;;;;;;;;;;;;;;;4875426;29;19928;-72
2022/08/14 06:54:21;;;;;;;;;;;;;;;;;;4893350;29;19938;-73
2022/08/14 06:56:48;;;;;;;;;;;;;;;;;;4892243;29;19950;-73
2022/08/14 06:59:20;;;;;;;;;;;;;;;;;;4891860;29;19931;-72
2022/08/14 07:07:25;;;;;;;;;;;;;;;;;;4889607;29;21423;-72
2022/08/14 07:09:54;;;;;;;;;;;;;;;;;;4890101;29;19934;-73
2022/08/14 07:12:22;;;;;;;;;;;;;;;;;;4894294;29;19934;-72
2022/08/14 07:15:09;;;;;;;;;;;;;;;;;;4891818;29;20614;-72
2022/08/14 07:17:37;;;;;;;;;;;;;;;;;;4890438;29;20018;-72
2022/08/14 07:20:05;;;;;;;;;;;;;;;;;;4891613;29;20034;-72
2022/08/14 07:22:34;;;;;;;;;;;;;;;;;;4892901;29;20002;-72
2022/08/14 07:25:24;;;;;;;;;;;;;;;;;;4908829;29;20030;-86
2022/08/14 07:27:58;;;;;;;;;;;;;;;;;;4892947;29;19932;-86
2022/08/14 07:30:25;;;;;;;;;;;;;;;;;;4899244;29;19935;-86
2022/08/14 07:32:59;;;;;;;;;;;;;;;;;;4907046;29;19927;-86
2022/08/14 07:35:26;;;;;;;;;;;;;;;;;;4887530;29;19935;-86
2022/08/14 07:38:03;;;;;;;;;;;;;;;;;;4906405;29;19927;-86
2022/08/14 07:40:30;;;;;;;;;;;;;;;;;;4909956;29;20399;-86
2022/08/14 07:42:58;;;;;;;;;;;;;;;;;;4901283;29;19934;-87
2022/08/14 07:45:25;;;;;;;;;;;;;;;;;;4905537;29;20548;-85
2022/08/14 07:47:55;;;;;;;;;;;;;;;;;;4900190;29;19931;-86
2022/08/14 07:50:22;;;;;;;;;;;;;;;;;;4906051;29;20722;-86
2022/08/14 07:52:50;;;;;;;;;;;;;;;;;;4903696;29;19931;-86
2022/08/14 07:55:17;;;;;;;;;;;;;;;;;;4886992;29;19936;-86
2022/08/14 07:57:45;;;;;;;;;;;;;;;;;;4893896;29;19935;-86
2022/08/14 08:00:13;;;;;;;;;;;;;;;;;;4893431;29;19931;-86
2022/08/14 08:02:58;;;;;;;;;;;;;;;;;;4895957;29;19931;-86
2022/08/14 08:05:26;;;;;;;;;;;;;;;;;;4900058;29;19942;-86
2022/08/14 08:07:53;;;;;;;;;;;;;;;;;;4881254;29;19931;-85
2022/08/14 08:10:30;;;;;;;;;;;;;;;;;;4878755;29;20017;-86
2022/08/14 08:13:17;;;;;;;;;;;;;;;;;;4898288;29;19941;-86
2022/08/14 08:15:45;;;;;;;;;;;;;;;;;;4903247;29;19955;-87
2022/08/14 08:18:12;;;;;;;;;;;;;;;;;;4898631;29;19938;-86
2022/08/14 08:20:46;;;;;;;;;;;;;;;;;;4901998;29;19938;-86
2022/08/14 08:23:18;;;;;;;;;;;;;;;;;;4907021;29;20350;-87
2022/08/14 08:25:47;;;;;;;;;;;;;;;;;;4885982;29;20456;-87
2022/08/14 08:28:14;;;;;;;;;;;;;;;;;;4878235;29;19983;-87
2022/08/14 08:30:48;;;;;;;;;;;;;;;;;;4895656;29;19927;-87
2022/08/14 08:33:16;;;;;;;;;;;;;;;;;;4895542;29;19927;-86
2022/08/14 08:35:43;;;;;;;;;;;;;;;;;;4895707;29;19938;-87
2022/08/14 08:38:13;;;;;;;;;;;;;;;;;;4894715;29;19931;-87
2022/08/14 08:41:01;;;;;;;;;;;;;;;;;;4896281;29;19934;-87
2022/08/14 08:43:29;;;;;;;;;;;;;;;;;;4904763;29;19970;-87
2022/08/14 08:45:56;;;;;;;;;;;;;;;;;;4893551;29;19936;-87
2022/08/14 08:48:28;;;;;;;;;;;;;;;;;;4897906;29;20017;-87
2022/08/14 08:50:58;;;;;;;;;;;;;;;;;;4896773;29;19935;-86
2022/08/14 08:53:25;;;;;;;;;;;;;;;;;;4890028;29;19927;-86
2022/08/14 08:55:53;;;;;;;;;;;;;;;;;;4912990;29;19970;-86
2022/08/14 08:58:20;;;;;;;;;;;;;;;;;;4913016;29;19931;-86
2022/08/14 09:00:52;;;;;;;;;;;;;;;;;;4887203;29;20403;-86
2022/08/14 09:03:20;;;;;;;;;;;;;;;;;;4897038;29;19939;-86
2022/08/14 09:05:48;;;;;;;;;;;;;;;;;;4905988;29;19939;-86
2022/08/14 09:08:16;;;;;;;;;;;;;;;;;;4912019;29;19931;-86
2022/08/14 09:10:52;;;;;;;;;;;;;;;;;;4912636;29;20022;-87
2022/08/14 09:13:25;;;;;;;;;;;;;;;;;;4913069;29;19935;-86
2022/08/14 09:15:52;;;;;;;;;;;;;;;;;;4912311;29;19931;-87
2022/08/14 09:18:20;;;;;;;;;;;;;;;;;;4911833;29;19931;-87
2022/08/14 09:20:47;;;;;;;;;;;;;;;;;;4912399;29;20322;-87
2022/08/14 09:23:15;;;;;;;;;;;;;;;;;;4896870;29;19954;-86
2022/08/14 09:25:43;;;;;;;;;;;;;;;;;;4902957;29;19939;-87
2022/08/14 09:28:27;;;;;;;;;;;;;;;;;;4879931;29;19947;-86
2022/08/14 09:30:54;;;;;;;;;;;;;;;;;;4901587;29;19931;-86
2022/08/14 09:33:22;;;;;;;;;;;;;;;;;;4898740;29;19932;-85
2022/08/14 09:35:49;;;;;;;;;;;;;;;;;;4897947;29;20046;-86
2022/08/14 09:38:22;;;;;;;;;;;;;;;;;;4892324;29;20034;-87
2022/08/14 09:40:52;;;;;;;;;;;;;;;;;;4892346;29;19931;-86
2022/08/14 09:43:19;;;;;;;;;;;;;;;;;;4892853;29;19932;-86
2022/08/14 09:45:49;;;;;;;;;;;;;;;;;;4865160;29;19974;-87
2022/08/14 09:48:19;;;;;;;;;;;;;;;;;;4888321;29;19935;-87
2022/08/14 09:50:53;;;;;;;;;;;;;;;;;;4892682;29;20344;-87
2022/08/14 09:53:20;;;;;;;;;;;;;;;;;;4896623;29;20418;-87
2022/08/14 09:55:48;;;;;;;;;;;;;;;;;;4898417;29;20399;-87
2022/08/14 09:58:15;;;;;;;;;;;;;;;;;;4892981;29;20351;-86
2022/08/14 10:00:46;;;;;;;;;;;;;;;;;;4900395;29;19934;-86
2022/08/14 10:03:13;;;;;;;;;;;;;;;;;;4898642;29;19928;-86
2022/08/14 10:05:41;;;;;;;;;;;;;;;;;;4893706;29;19931;-87
2022/08/14 10:08:09;;;;;;;;;;;;;;;;;;4908287;29;19994;-87
2022/08/14 10:10:41;;;;;;;;;;;;;;;;;;4907359;29;19983;-86
2022/08/14 10:13:08;;;;;;;;;;;;;;;;;;4892620;29;20404;-87
2022/08/14 10:15:36;;;;;;;;;;;;;;;;;;4861847;29;19928;-86
2022/08/14 10:18:06;;;;;;;;;;;;;;;;;;4893550;29;19931;-86
2022/08/14 10:20:34;;;;;;;;;;;;;;;;;;4877473;29;19931;-87
2022/08/14 10:23:07;;;;;;;;;;;;;;;;;;4900032;29;19943;-86
2022/08/14 10:25:40;;;;;;;;;;;;;;;;;;4894037;29;19934;-86
2022/08/14 10:28:07;;;;;;;;;;;;;;;;;;4898064;29;19935;-87
2022/08/14 10:30:36;;;;;;;;;;;;;;;;;;4896261;29;20571;-87
2022/08/14 10:33:03;;;;;;;;;;;;;;;;;;4911211;29;19932;-87
2022/08/14 10:35:31;;;;;;;;;;;;;;;;;;4901862;29;19927;-87
2022/08/14 10:37:58;;;;;;;;;;;;;;;;;;4915732;29;19935;-87
2022/08/14 10:40:26;;;;;;;;;;;;;;;;;;4903322;29;19966;-87
2022/08/14 10:43:09;;;;;;;;;;;;;;;;;;4890399;29;19931;-87
2022/08/14 10:45:37;;;;;;;;;;;;;;;;;;4917009;29;19930;-88
2022/08/14 10:48:12;;;;;;;;;;;;;;;;;;4915619;29;20014;-87
2022/08/14 10:50:52;;;;;;;;;;;;;;;;;;4916868;29;20394;-87
2022/08/14 10:53:19;;;;;;;;;;;;;;;;;;4899351;29;19969;-87
2022/08/14 10:55:47;;;;;;;;;;;;;;;;;;4905577;29;19991;-86
2022/08/14 10:58:14;;;;;;;;;;;;;;;;;;4878811;29;20318;-87
2022/08/14 11:00:43;;;;;;;;;;;;;;;;;;4890041;29;19935;-87
2022/08/14 11:03:13;;;;;;;;;;;;;;;;;;4910127;29;19932;-86
2022/08/14 11:05:46;;;;;;;;;;;;;;;;;;4906563;29;19927;-87
2022/08/14 11:08:14;;;;;;;;;;;;;;;;;;4906989;29;19927;-86
2022/08/14 11:10:41;;;;;;;;;;;;;;;;;;4896675;29;19931;-86
2022/08/14 11:13:09;;;;;;;;;;;;;;;;;;4895675;29;20411;-86
2022/08/14 11:15:36;;;;;;;;;;;;;;;;;;4896143;29;19927;-86
2022/08/14 11:18:04;;;;;;;;;;;;;;;;;;4879604;29;19938;-86
2022/08/14 11:20:31;;;;;;;;;;;;;;;;;;4879734;29;20400;-86
2022/08/14 11:22:58;;;;;;;;;;;;;;;;;;4880170;29;19932;-86
2022/08/14 11:25:25;;;;;;;;;;;;;;;;;;4895168;29;19927;-86
2022/08/14 11:28:10;;;;;;;;;;;;;;;;;;4896296;29;19932;-85
2022/08/14 11:30:44;;;;;;;;;;;;;;;;;;4896947;29;20030;-85
2022/08/14 11:33:18;;;;;;;;;;;;;;;;;;4881640;29;20019;-85
2022/08/14 11:35:45;;;;;;;;;;;;;;;;;;4896477;29;19928;-85
2022/08/14 11:38:29;;;;;;;;;;;;;;;;;;4896559;29;20003;-86
2022/08/14 11:40:57;;;;;;;;;;;;;;;;;;4895908;29;19931;-86
2022/08/14 11:43:25;;;;;;;;;;;;;;;;;;4888349;29;20404;-85
2022/08/14 11:45:56;;;;;;;;;;;;;;;;;;4900012;29;20018;-85
2022/08/14 11:48:28;;;;;;;;;;;;;;;;;;4899759;29;19930;-85
2022/08/14 11:51:23;;;;;;;;;;;;;;;;;;4904792;29;19931;-84
2022/08/14 11:53:51;;;;;;;;;;;;;;;;;;4917287;29;19937;-85
2022/08/14 11:56:24;;;;;;;;;;;;;;;;;;4900669;29;19935;-85
2022/08/14 11:58:56;;;;;;;;;;;;;;;;;;4909380;29;19927;-86
2022/08/14 12:01:27;;;;;;;;;;;;;;;;;;4898599;29;19934;-86
2022/08/14 12:03:58;;;;;;;;;;;;;;;;;;4918886;29;19955;-84
2022/08/14 12:06:25;;;;;;;;;;;;;;;;;;4920568;29;20141;-85
2022/08/14 12:08:59;;;;;;;;;;;;;;;;;;4899536;29;19935;-85
2022/08/14 12:11:26;;;;;;;;;;;;;;;;;;4917214;29;20009;-86
2022/08/14 12:14:01;;;;;;;;;;;;;;;;;;4915009;29;19966;-85
2022/08/14 12:16:30;;;;;;;;;;;;;;;;;;4897896;29;20295;-84
2022/08/14 12:18:57;;;;;;;;;;;;;;;;;;4883290;29;20363;-85
2022/08/14 12:21:27;;;;;;;;;;;;;;;;;;4898259;29;19931;-85
2022/08/14 12:23:58;;;;;;;;;;;;;;;;;;4899456;29;19931;-86
2022/08/14 12:26:28;;;;;;;;;;;;;;;;;;4899704;29;20296;-85
2022/08/14 12:29:08;;;;;;;;;;;;;;;;;;4881410;29;20022;-85
2022/08/14 12:31:35;;;;;;;;;;;;;;;;;;4896172;29;19938;-85
2022/08/14 12:34:11;;;;;;;;;;;;;;;;;;4895514;29;20430;-85
2022/08/14 12:36:41;;;;;;;;;;;;;;;;;;4894247;29;19943;-86
2022/08/14 12:39:08;;;;;;;;;;;;;;;;;;4879940;29;20030;-85
2022/08/14 12:41:50;;;;;;;;;;;;;;;;;;4895241;29;19931;-84
2022/08/14 12:44:23;;;;;;;;;;;;;;;;;;4898988;29;19971;-84
2022/08/14 12:46:52;;;;;;;;;;;;;;;;;;4879696;29;19938;-85
2022/08/14 12:49:21;;;;;;;;;;;;;;;;;;4893384;29;19931;-86
2022/08/14 12:51:49;;;;;;;;;;;;;;;;;;4894854;29;19928;-85
2022/08/14 12:54:31;;;;;;;;;;;;;;;;;;4894718;29;19931;-86
2022/08/14 12:57:01;;;;;;;;;;;;;;;;;;4894285;29;19928;-85
2022/08/14 12:59:31;;;;;;;;;;;;;;;;;;4898237;29;20364;-84
2022/08/14 13:02:07;;;;;;;;;;;;;;;;;;4898847;29;19936;-85
2022/08/14 13:04:37;;;;;;;;;;;;;;;;;;4895907;29;19939;-85
2022/08/14 13:07:09;;;;;;;;;;;;;;;;;;4894388;29;19927;-86
2022/08/14 13:09:36;;;;;;;;;;;;;;;;;;4896077;29;19951;-85
2022/08/14 13:12:11;;;;;;;;;;;;;;;;;;4897129;29;20006;-85
2022/08/14 13:14:58;;;;;;;;;;;;;;;;;;4885275;29;19932;-86
2022/08/14 13:17:25;;;;;;;;;;;;;;;;;;4897296;29;20395;-86
2022/08/14 13:19:53;;;;;;;;;;;;;;;;;;4895858;29;19931;-86
2022/08/14 13:22:21;;;;;;;;;;;;;;;;;;4894424;29;19927;-86
2022/08/14 13:25:00;;;;;;;;;;;;;;;;;;4893890;29;19927;-86
2022/08/14 13:27:28;;;;;;;;;;;;;;;;;;4892240;29;19931;-86
2022/08/14 13:29:55;;;;;;;;;;;;;;;;;;4878056;29;19931;-86
2022/08/14 13:32:23;;;;;;;;;;;;;;;;;;4893781;29;19940;-86
2022/08/14 13:34:51;;;;;;;;;;;;;;;;;;4895811;29;19932;-86
2022/08/14 13:37:23;;;;;;;;;;;;;;;;;;4902437;29;19928;-86
2022/08/14 13:39:51;;;;;;;;;;;;;;;;;;4897821;29;19955;-85
2022/08/14 13:42:26;;;;;;;;;;;;;;;;;;4897543;29;20426;-86
2022/08/14 13:45:01;;;;;;;;;;;;;;;;;;4898059;29;19998;-85
2022/08/14 13:47:31;;;;;;;;;;;;;;;;;;4897829;29;19935;-86
2022/08/14 13:50:01;;;;;;;;;;;;;;;;;;4880727;29;19931;-85
2022/08/14 13:52:33;;;;;;;;;;;;;;;;;;4895418;29;19928;-86
2022/08/14 13:55:22;;;;;;;;;;;;;;;;;;4912418;29;20111;-85
2022/08/14 13:58:08;;;;;;;;;;;;;;;;;;4881275;29;20403;-85
2022/08/14 14:00:40;;;;;;;;;;;;;;;;;;4879313;29;19932;-84
2022/08/14 14:03:19;;;;;;;;;;;;;;;;;;4895229;29;19932;-85
2022/08/14 14:05:46;;;;;;;;;;;;;;;;;;4894235;29;19931;-84
2022/08/14 14:08:20;;;;;;;;;;;;;;;;;;4894122;29;19937;-85
2022/08/14 14:11:14;;;;;;;;;;;;;;;;;;4895226;29;19963;-85
2022/08/14 14:13:56;;;;;;;;;;;;;;;;;;4896204;29;19950;-85
2022/08/14 14:16:25;;;;;;;;;;;;;;;;;;4898508;29;19935;-86
2022/08/14 14:18:59;;;;;;;;;;;;;;;;;;4899917;29;19932;-84
2022/08/14 14:21:33;;;;;;;;;;;;;;;;;;4898403;29;20375;-86
2022/08/14 14:24:00;;;;;;;;;;;;;;;;;;4895213;29;20324;-85
2022/08/14 14:26:27;;;;;;;;;;;;;;;;;;4901303;29;20003;-85
2022/08/14 14:28:55;;;;;;;;;;;;;;;;;;4910963;29;20362;-85
2022/08/14 14:31:27;;;;;;;;;;;;;;;;;;4904256;29;19947;-85
2022/08/14 14:33:56;;;;;;;;;;;;;;;;;;4899127;29;19931;-85
2022/08/14 14:36:25;;;;;;;;;;;;;;;;;;4898016;29;19943;-84
2022/08/14 14:38:58;;;;;;;;;;;;;;;;;;4878441;29;20351;-86
2022/08/14 14:41:25;;;;;;;;;;;;;;;;;;4877497;29;19938;-86
2022/08/14 14:43:53;;;;;;;;;;;;;;;;;;4862816;29;19938;-86
2022/08/14 14:46:21;;;;;;;;;;;;;;;;;;4892679;29;19983;-85
2022/08/14 14:52:24;;;;;;;;;;;;;;;;;;4893619;29;20029;-87
2022/08/14 14:54:53;;;;;;;;;;;;;;;;;;4895693;29;19991;-87
2022/08/14 14:57:21;;;;;;;;;;;;;;;;;;4897364;29;20025;-86
2022/08/14 14:59:48;;;;;;;;;;;;;;;;;;4896059;29;19934;-87
2022/08/14 15:02:16;;;;;;;;;;;;;;;;;;4906014;29;20407;-87
2022/08/14 15:04:44;;;;;;;;;;;;;;;;;;4899732;29;20029;-88
2022/08/14 15:07:12;;;;;;;;;;;;;;;;;;4893904;29;19987;-87
2022/08/14 15:09:43;;;;;;;;;;;;;;;;;;4892880;29;20378;-87
2022/08/14 15:12:10;;;;;;;;;;;;;;;;;;4878948;29;19928;-87
2022/08/14 15:14:54;;;;;;;;;;;;;;;;;;4911967;29;19931;-87
2022/08/14 15:17:32;;;;;;;;;;;;;;;;;;4912393;29;20284;-87
2022/08/14 15:20:02;;;;;;;;;;;;;;;;;;4903680;29;20338;-86
2022/08/14 15:22:30;;;;;;;;;;;;;;;;;;4896463;29;19932;-87
2022/08/14 15:24:57;;;;;;;;;;;;;;;;;;4897270;29;20396;-87
2022/08/14 15:27:24;;;;;;;;;;;;;;;;;;4890838;29;20014;-86
2022/08/14 15:29:53;;;;;;;;;;;;;;;;;;4896709;29;20315;-86
2022/08/14 15:32:20;;;;;;;;;;;;;;;;;;4896589;29;19938;-86
2022/08/14 15:34:49;;;;;;;;;;;;;;;;;;4897805;29;20383;-86
2022/08/14 15:37:18;;;;;;;;;;;;;;;;;;4899885;29;19963;-86
2022/08/14 15:39:45;;;;;;;;;;;;;;;;;;4897410;29;19927;-86
2022/08/14 15:42:12;;;;;;;;;;;;;;;;;;4908072;29;20221;-86
2022/08/14 15:44:42;;;;;;;;;;;;;;;;;;4908568;29;20295;-86
2022/08/14 15:47:26;;;;;;;;;;;;;;;;;;4883798;29;19931;-85
2022/08/14 15:49:56;;;;;;;;;;;;;;;;;;4904379;29;19938;-87
2022/08/14 15:52:29;;;;;;;;;;;;;;;;;;4881343;29;19929;-87
2022/08/14 15:54:59;;;;;;;;;;;;;;;;;;4897214;29;19931;-87
2022/08/14 15:57:28;;;;;;;;;;;;;;;;;;4886902;29;19931;-86
2022/08/14 16:03:02;;;;;;;;;;;;;;;;;;4895498;29;19943;-87
2022/08/14 16:05:29;;;;;;;;;;;;;;;;;;4902391;29;19935;-86
2022/08/14 16:08:04;;;;;;;;;;;;;;;;;;4904946;29;19931;-87
2022/08/14 16:10:32;;;;;;;;;;;;;;;;;;4910549;29;19931;-86
2022/08/14 16:12:59;;;;;;;;;;;;;;;;;;4897668;29;19927;-86
2022/08/14 16:15:26;;;;;;;;;;;;;;;;;;4900407;29;20384;-86
2022/08/14 16:17:54;;;;;;;;;;;;;;;;;;4887730;29;19932;-87
2022/08/14 16:20:21;;;;;;;;;;;;;;;;;;4895369;29;19998;-87
2022/08/14 16:23:08;;;;;;;;;;;;;;;;;;4895387;29;19963;-86
2022/08/14 16:25:39;;;;;;;;;;;;;;;;;;4896479;29;19931;-86
2022/08/14 16:28:07;;;;;;;;;;;;;;;;;;4894401;29;19932;-87
2022/08/14 16:30:34;;;;;;;;;;;;;;;;;;4919164;29;19934;-86
2022/08/14 16:33:03;;;;;;;;;;;;;;;;;;4898735;29;20438;-86
2022/08/14 16:35:40;;;;;;;;;;;;;;;;;;4903971;29;20041;-86
2022/08/14 16:38:09;;;;;;;;;;;;;;;;;;4901283;29;19927;-86
2022/08/14 16:40:45;;;;;;;;;;;;;;;;;;4908058;29;19931;-86
2022/08/14 16:43:13;;;;;;;;;;;;;;;;;;4908056;29;19935;-86
2022/08/14 16:45:41;;;;;;;;;;;;;;;;;;4895908;29;19942;-86
2022/08/14 16:48:10;;;;;;;;;;;;;;;;;;4900953;29;19928;-86
2022/08/14 16:50:57;;;;;;;;;;;;;;;;;;4906545;29;19934;-86
2022/08/14 16:53:25;;;;;;;;;;;;;;;;;;4911803;29;19931;-86
2022/08/14 16:55:53;;;;;;;;;;;;;;;;;;4913619;29;20046;-86
2022/08/14 16:58:21;;;;;;;;;;;;;;;;;;4914830;29;19978;-86
2022/08/14 17:00:56;;;;;;;;;;;;;;;;;;4914153;29;19938;-86
2022/08/14 17:03:23;;;;;;;;;;;;;;;;;;4898436;29;19941;-86
2022/08/14 17:05:51;;;;;;;;;;;;;;;;;;4888808;29;19959;-87
2022/08/14 17:08:21;;;;;;;;;;;;;;;;;;4903846;29;19942;-86
2022/08/14 17:11:01;;;;;;;;;;;;;;;;;;4896679;29;20046;-86
2022/08/14 17:13:31;;;;;;;;;;;;;;;;;;4889600;29;20217;-86
2022/08/14 17:16:18;;;;;;;;;;;;;;;;;;4905823;29;20458;-86
2022/08/14 17:18:52;;;;;;;;;;;;;;;;;;4879185;29;19937;-86
2022/08/14 17:21:21;;;;;;;;;;;;;;;;;;4902120;29;19932;-85
2022/08/14 17:23:59;;;;;;;;;;;;;;;;;;4913048;29;19938;-87
2022/08/14 17:26:26;;;;;;;;;;;;;;;;;;4913174;29;19931;-87
2022/08/14 17:28:58;;;;;;;;;;;;;;;;;;4904147;23;20608;-70
2022/08/14 17:31:25;;;;;;;;;;;;;;;;;;4856970;29;20400;-71